Time;durP1;ratioP1;P1;durP2;ratioP2;P2;SDS_P1;SDS_P2;PMS_P1;PMS_P2;Temp;Humidity;BMP_temperature;BMP_pressure;BME280_temperature;BME280_humidity;BME280_pressure;Samples;Min_cycle;Max_cycle;Signal;HPM_P1;HPM_P2
2022/08/18 00:01:40;;;;;;;4.15;3.85;;;;;;;17.83;100.00;96359.84;5043767;28;20207;-51
2022/08/18 00:04:07;;;;;;;4.63;4.32;;;;;;;17.79;100.00;96358.56;5043937;28;20231;-50
2022/08/18 00:06:35;;;;;;;4.32;4.03;;;;;;;17.78;100.00;96354.25;5043367;28;20263;-51
2022/08/18 00:09:07;;;;;;;4.40;4.00;;;;;;;17.76;100.00;96356.28;5042248;28;20290;-50
2022/08/18 00:11:36;;;;;;;4.40;4.00;;;;;;;17.72;100.00;96356.88;5042144;28;20199;-52
2022/08/18 00:14:03;;;;;;;4.57;4.20;;;;;;;17.75;100.00;96362.66;5041089;28;20721;-50
2022/08/18 00:16:30;;;;;;;4.53;4.13;;;;;;;17.70;100.00;96358.91;5041419;28;20692;-51
2022/08/18 00:18:59;;;;;;;4.35;4.07;;;;;;;17.70;100.00;96343.72;5040973;28;20234;-49
2022/08/18 00:21:25;;;;;;;4.20;3.90;;;;;;;17.59;100.00;96343.41;5042920;28;20640;-51
2022/08/18 00:23:53;;;;;;;4.28;4.00;;;;;;;17.55;100.00;96324.22;5041968;28;20280;-51
2022/08/18 00:26:21;;;;;;;4.15;3.88;;;;;;;17.50;100.00;96333.84;5043434;28;20228;-51
2022/08/18 00:28:47;;;;;;;4.07;3.78;;;;;;;17.46;100.00;96330.75;5042582;28;20217;-51
2022/08/18 00:31:14;;;;;;;4.18;3.78;;;;;;;17.48;100.00;96328.69;5043555;28;20286;-51
2022/08/18 00:33:42;;;;;;;4.47;4.18;;;;;;;17.45;100.00;96325.56;5043333;28;20230;-51
2022/08/18 00:36:10;;;;;;;4.40;4.10;;;;;;;17.45;100.00;96337.09;5041497;28;20218;-52
2022/08/18 00:38:38;;;;;;;4.20;3.90;;;;;;;17.40;100.00;96331.50;5042467;28;20199;-51
2022/08/18 00:41:05;;;;;;;4.40;4.10;;;;;;;17.41;100.00;96322.47;5042369;28;20235;-51
2022/08/18 00:43:36;;;;;;;4.30;3.90;;;;;;;17.46;100.00;96314.69;5043174;28;20269;-50
2022/08/18 00:46:06;;;;;;;3.92;3.70;;;;;;;17.38;100.00;96312.16;5042888;28;20204;-51
2022/08/18 00:48:33;;;;;;;3.97;3.78;;;;;;;17.29;100.00;96305.28;5042632;28;20763;-51
2022/08/18 00:51:03;;;;;;;4.20;3.90;;;;;;;17.20;100.00;96309.13;5043041;28;20265;-51
2022/08/18 00:53:34;;;;;;;4.40;4.00;;;;;;;17.15;100.00;96301.66;5043090;28;20257;-50
2022/08/18 00:56:06;;;;;;;4.15;3.85;;;;;;;17.10;100.00;96292.59;5042015;28;20191;-52
2022/08/18 00:58:36;;;;;;;4.23;3.93;;;;;;;17.16;100.00;96302.50;5042425;28;20207;-50
2022/08/18 01:01:05;;;;;;;4.53;4.22;;;;;;;17.15;100.00;96307.00;5042778;28;20314;-52
2022/08/18 01:03:33;;;;;;;4.55;4.15;;;;;;;17.13;100.00;96311.72;5042742;28;20261;-51
2022/08/18 01:06:01;;;;;;;4.33;4.03;;;;;;;17.15;100.00;96307.00;5041772;28;20194;-51
2022/08/18 01:08:28;;;;;;;4.13;3.90;;;;;;;17.19;100.00;96305.63;5041969;28;20706;-50
2022/08/18 01:10:58;;;;;;;4.40;4.10;;;;;;;17.16;100.00;96311.34;5041847;28;20211;-51
2022/08/18 01:13:27;;;;;;;4.10;3.90;;;;;;;17.18;100.00;96297.81;5042833;28;20219;-52
2022/08/18 01:15:54;;;;;;;4.43;4.03;;;;;;;17.12;100.00;96301.22;5042511;28;20211;-53
2022/08/18 01:23:55;;;;;;;4.00;3.60;;;;;;;17.06;100.00;96296.66;5042205;28;20558;-51
2022/08/18 01:26:21;;;;;;;4.50;4.20;;;;;;;17.06;100.00;96300.16;5041197;28;20722;-51
2022/08/18 01:28:49;;;;;;;4.22;3.92;;;;;;;17.09;100.00;96296.25;5042117;28;20207;-53
2022/08/18 01:31:33;;;;;;;4.13;3.70;;;;;;;17.10;100.00;96287.25;5043073;28;20389;-51
2022/08/18 01:34:00;;;;;;;4.40;4.10;;;;;;;17.09;100.00;96293.59;5042002;28;20257;-50
2022/08/18 01:36:28;;;;;;;4.60;4.20;;;;;;;16.99;100.00;96283.25;5042571;28;20212;-51
2022/08/18 01:38:57;;;;;;;4.10;3.70;;;;;;;16.95;100.00;96279.28;5042929;28;20268;-52
2022/08/18 01:41:24;;;;;;;4.25;3.95;;;;;;;16.94;100.00;96272.28;5042539;28;20246;-50
2022/08/18 01:43:51;;;;;;;4.13;3.93;;;;;;;16.94;100.00;96272.28;5043111;28;20195;-50
2022/08/18 01:46:19;;;;;;;4.28;3.97;;;;;;;16.97;100.00;96273.78;5042326;28;20303;-52
2022/08/18 01:48:46;;;;;;;4.17;3.87;;;;;;;16.94;100.00;96266.94;5043037;28;20663;-52
2022/08/18 01:51:12;;;;;;;4.13;3.83;;;;;;;16.86;100.00;96264.44;5042679;28;20290;-52
2022/08/18 01:53:39;;;;;;;4.30;4.00;;;;;;;16.97;100.00;96271.91;5053003;28;20647;-52
2022/08/18 01:56:08;;;;;;;4.50;4.20;;;;;;;17.04;100.00;96266.66;5055613;28;20199;-52
2022/08/18 01:58:35;;;;;;;4.40;4.10;;;;;;;16.97;100.00;96266.56;5042795;28;20236;-51
2022/08/18 02:01:04;;;;;;;4.70;4.30;;;;;;;16.90;100.00;96255.00;5042593;28;20586;-51
2022/08/18 02:03:33;;;;;;;4.63;4.33;;;;;;;16.82;100.00;96247.13;5042323;28;20234;-51
2022/08/18 02:06:02;;;;;;;4.10;3.90;;;;;;;16.84;100.00;96247.75;5041785;28;20207;-50
2022/08/18 02:08:29;;;;;;;3.97;3.72;;;;;;;16.81;100.00;96242.81;5041961;28;20697;-51
2022/08/18 02:10:57;;;;;;;7.47;4.43;;;;;;;16.82;100.00;96237.28;5042437;28;20297;-50
2022/08/18 02:13:25;;;;;;;4.72;4.32;;;;;;;16.79;100.00;96234.97;5042688;28;20535;-51
2022/08/18 02:15:52;;;;;;;4.15;3.95;;;;;;;16.76;100.00;96230.00;5041178;28;20278;-51
2022/08/18 02:18:23;;;;;;;4.40;4.10;;;;;;;16.77;100.00;96231.66;5044527;28;20210;-50
2022/08/18 02:20:50;;;;;;;4.57;4.17;;;;;;;16.73;100.00;96229.56;5045423;28;20209;-51
2022/08/18 02:23:16;;;;;;;4.20;3.90;;;;;;;16.72;100.00;96226.06;5046207;28;20215;-51
2022/08/18 02:25:43;;;;;;;5.90;4.10;;;;;;;16.71;100.00;96232.44;5045633;28;20279;-51
2022/08/18 02:28:10;;;;;;;4.33;4.03;;;;;;;16.64;100.00;96226.22;5045572;28;20257;-51
2022/08/18 02:30:38;;;;;;;4.07;3.87;;;;;;;16.71;100.00;96229.78;5046561;28;20263;-52
2022/08/18 02:33:05;;;;;;;4.47;4.17;;;;;;;16.68;100.00;96232.84;5045613;28;20250;-50
2022/08/18 02:35:31;;;;;;;4.50;4.20;;;;;;;16.67;100.00;96238.34;5045463;28;20279;-51
2022/08/18 02:37:59;;;;;;;4.40;4.10;;;;;;;16.65;100.00;96235.84;5045263;28;20311;-51
2022/08/18 02:40:26;;;;;;;4.53;4.13;;;;;;;16.62;100.00;96244.25;5045327;28;20619;-50
2022/08/18 02:42:53;;;;;;;4.60;4.30;;;;;;;16.64;100.00;96226.22;5043890;28;20700;-52
2022/08/18 02:45:20;;;;;;;5.20;4.70;;;;;;;16.69;100.00;96226.44;5045928;28;20248;-50
2022/08/18 02:47:53;;;;;;;4.87;4.57;;;;;;;16.68;100.00;96224.81;5045328;28;20595;-50
2022/08/18 02:50:20;;;;;;;4.80;4.40;;;;;;;16.70;100.00;96224.63;5045887;28;20539;-51
2022/08/18 02:52:47;;;;;;;4.80;4.47;;;;;;;16.73;100.00;96221.56;5045788;28;20283;-50
2022/08/18 02:55:14;;;;;;;4.60;4.23;;;;;;;16.78;100.00;96219.16;5046041;28;20203;-51
2022/08/18 02:57:43;;;;;;;4.90;4.50;;;;;;;16.78;100.00;96214.66;5045145;28;20218;-51
2022/08/18 03:00:13;;;;;;;5.93;5.20;;;;;;;16.87;100.00;96213.47;5045724;28;20231;-50
2022/08/18 03:02:41;;;;;;;5.10;4.60;;;;;;;16.92;100.00;96221.75;5045238;28;20227;-51
2022/08/18 03:05:09;;;;;;;5.83;5.33;;;;;;;16.93;100.00;96225.25;5045324;28;20305;-52
2022/08/18 03:07:36;;;;;;;6.13;5.60;;;;;;;16.95;100.00;96225.88;5045663;28;20239;-50
2022/08/18 03:10:03;;;;;;;6.07;5.67;;;;;;;17.00;100.00;96219.97;5046677;28;20250;-51
2022/08/18 03:12:30;;;;;;;5.67;5.30;;;;;;;17.07;100.00;96223.50;5045312;28;20238;-51
2022/08/18 03:14:57;;;;;;;6.60;6.10;;;;;;;17.11;100.00;96227.47;5045914;28;20215;-50
2022/08/18 03:17:23;;;;;;;6.60;6.10;;;;;;;17.09;100.00;96227.63;5045764;28;20225;-52
2022/08/18 03:19:51;;;;;;;7.10;6.50;;;;;;;17.07;100.00;96232.34;5047079;28;20286;-51
2022/08/18 03:22:20;;;;;;;6.40;6.00;;;;;;;17.06;100.00;96227.19;5047637;28;20208;-50
2022/08/18 03:24:46;;;;;;;6.55;6.15;;;;;;;17.09;100.00;96230.31;5054384;28;20285;-51
2022/08/18 03:27:13;;;;;;;6.82;6.22;;;;;;;17.11;100.00;96236.28;5061934;28;20237;-52
2022/08/18 03:29:39;;;;;;;7.68;6.60;;;;;;;17.13;100.00;96233.41;5063368;28;20203;-51
2022/08/18 03:32:07;;;;;;;6.67;6.13;;;;;;;17.17;100.00;96224.00;5062132;28;20199;-51
2022/08/18 03:34:34;;;;;;;6.83;6.33;;;;;;;17.24;100.00;96222.19;5064888;28;20219;-50
2022/08/18 03:37:01;;;;;;;7.38;6.78;;;;;;;17.25;100.00;96205.97;5065709;28;21126;-51
2022/08/18 03:39:29;;;;;;;7.47;6.75;;;;;;;17.22;100.00;96205.53;5060230;28;20190;-51
2022/08/18 03:41:56;;;;;;;7.90;7.30;;;;;;;17.25;100.00;96205.16;5060261;28;20250;-52
2022/08/18 03:44:23;;;;;;;7.80;7.20;;;;;;;17.24;100.00;96207.00;5059803;28;20207;-55
2022/08/18 03:46:50;;;;;;;8.20;7.57;;;;;;;17.26;100.00;96201.44;5062884;28;20199;-52
2022/08/18 03:49:19;;;;;;;8.00;7.40;;;;;;;17.24;100.00;96209.66;5062985;28;20222;-51
2022/08/18 03:51:47;;;;;;;7.57;6.88;;;;;;;17.25;100.00;96213.19;5044437;28;20216;-52
2022/08/18 03:54:15;;;;;;;7.65;6.95;;;;;;;17.23;100.00;96213.34;5044638;28;20199;-50
2022/08/18 03:56:44;;;;;;;7.37;6.77;;;;;;;17.23;100.00;96223.22;5043532;28;20295;-51
2022/08/18 03:59:14;;;;;;;6.78;6.28;;;;;;;17.28;100.00;96223.47;5044308;28;20199;-50
2022/08/18 04:01:42;;;;;;;6.90;6.40;;;;;;;17.28;100.00;96231.50;5059820;28;20249;-50
2022/08/18 04:04:11;;;;;;;6.60;6.10;;;;;;;17.29;100.00;96230.44;5051882;28;20229;-52
2022/08/18 04:06:41;;;;;;;6.70;6.20;;;;;;;17.29;100.00;96238.47;5047944;28;20274;-51
2022/08/18 04:09:11;;;;;;;6.33;5.90;;;;;;;17.30;100.00;96237.44;5044059;28;20208;-50
2022/08/18 04:11:42;;;;;;;6.77;6.27;;;;;;;17.29;100.00;96227.78;5043646;28;20290;-51
2022/08/18 04:14:10;;;;;;;6.32;5.93;;;;;;;17.26;100.00;96209.47;5043592;28;20224;-50
2022/08/18 04:16:38;;;;;;;7.22;6.72;;;;;;;17.26;100.00;96206.78;5043944;28;20195;-50
2022/08/18 04:19:05;;;;;;;6.57;6.18;;;;;;;17.28;100.00;96188.72;5043356;28;20248;-50
2022/08/18 04:21:32;;;;;;;7.00;6.50;;;;;;;17.29;100.00;96188.50;5042872;28;20323;-50
2022/08/18 04:24:01;;;;;;;7.57;6.90;;;;;;;17.29;100.00;96180.50;5043295;28;20208;-51
2022/08/18 04:26:28;;;;;;;7.80;7.20;;;;;;;17.33;100.00;96154.22;5042881;28;20206;-51
2022/08/18 04:28:55;;;;;;;7.72;7.13;;;;;;;17.37;100.00;96128.75;5043086;28;20641;-51
2022/08/18 04:31:25;;;;;;;8.63;7.93;;;;;;;17.41;100.00;96092.56;5042770;28;20209;-51
2022/08/18 04:33:51;;;;;;;9.97;9.07;;;;;;;17.45;100.00;96103.69;5042643;28;20215;-51
2022/08/18 04:36:18;;;;;;;8.20;7.53;;;;;;;17.51;100.00;96125.09;5042031;28;20208;-50
2022/08/18 04:38:45;;;;;;;8.07;7.38;;;;;;;17.58;100.00;96152.72;5042423;28;20231;-48
2022/08/18 04:41:13;;;;;;;7.78;7.28;;;;;;;17.64;100.00;96167.19;5042281;28;20231;-51
2022/08/18 04:43:40;;;;;;;9.13;8.43;;;;;;;17.65;100.00;96160.78;5042225;28;20657;-50
2022/08/18 04:46:07;;;;;;;10.45;9.45;;;;;;;17.64;100.00;96167.19;5042290;28;20706;-49
2022/08/18 04:48:37;;;;;;;11.95;10.90;;;;;;;17.82;100.00;96175.47;5041685;28;20688;-51
2022/08/18 04:51:09;;;;;;;11.25;10.32;;;;;;;17.89;100.00;96187.00;5043078;28;20278;-51
2022/08/18 04:53:44;;;;;;;11.85;10.75;;;;;;;17.89;100.00;96195.88;5042175;28;20230;-50
2022/08/18 04:56:16;;;;;;;11.80;10.80;;;;;;;17.89;100.00;96195.88;5042106;28;20213;-52
2022/08/18 04:58:43;;;;;;;11.55;10.65;;;;;;;17.81;100.00;96209.44;5042954;28;20214;-52
2022/08/18 05:01:10;;;;;;;10.52;9.55;;;;;;;17.83;100.00;96236.78;5042118;28;20288;-50
2022/08/18 05:03:40;;;;;;;11.55;10.65;;;;;;;17.84;100.00;96238.47;5042363;28;20290;-51
2022/08/18 05:06:07;;;;;;;11.32;10.43;;;;;;;17.83;100.00;96231.44;5041583;28;20208;-51
2022/08/18 05:08:34;;;;;;;12.15;10.80;;;;;;;17.71;100.00;96211.63;5042433;28;20302;-51
2022/08/18 05:11:01;;;;;;;11.20;10.35;;;;;;;17.69;100.00;96204.81;5041356;28;20286;-50
2022/08/18 05:13:27;;;;;;;12.07;10.95;;;;;;;17.63;100.00;96200.28;5043717;28;20724;-50
2022/08/18 05:15:55;;;;;;;11.90;10.90;;;;;;;17.66;100.00;96216.75;5041831;28;20294;-51
2022/08/18 05:18:23;;;;;;;10.93;10.10;;;;;;;17.66;100.00;96227.44;5042220;28;20227;-50
2022/08/18 05:20:52;;;;;;;12.90;11.90;;;;;;;17.69;100.00;96218.19;5042022;28;20229;-51
2022/08/18 05:23:19;;;;;;;12.00;10.90;;;;;;;17.66;100.00;96213.25;5042183;28;20234;-50
2022/08/18 05:25:47;;;;;;;11.70;10.80;;;;;;;17.73;100.00;96211.44;5042049;28;20231;-50
2022/08/18 05:28:14;;;;;;;12.05;11.18;;;;;;;17.76;100.00;96206.50;5042251;28;20294;-50
2022/08/18 05:30:41;;;;;;;11.73;10.82;;;;;;;17.65;100.00;96214.25;5042587;28;20222;-49
2022/08/18 05:33:10;;;;;;;12.20;11.23;;;;;;;17.52;100.00;96228.34;5042341;28;20666;-50
2022/08/18 05:35:41;;;;;;;12.85;11.75;;;;;;;17.49;100.00;96223.41;5042139;28;20223;-51
2022/08/18 05:38:35;;;;;;;11.77;10.77;;;;;;;17.50;100.00;96229.59;5041012;28;20599;-51
2022/08/18 05:41:10;;;;;;;12.05;10.95;;;;;;;17.53;100.00;96224.69;5042177;28;20272;-50
2022/08/18 05:43:38;;;;;;;12.50;11.43;;;;;;;17.55;100.00;96222.63;5041543;28;20318;-50
2022/08/18 05:46:06;;;;;;;11.60;10.50;;;;;;;17.64;100.00;96221.44;5041679;28;20207;-50
2022/08/18 05:48:34;;;;;;;10.90;10.00;;;;;;;17.72;100.00;96220.47;5041024;28;20386;-50
2022/08/18 05:51:05;;;;;;;12.63;11.50;;;;;;;17.83;100.00;96227.94;5042120;28;20282;-51
2022/08/18 05:59:01;;;;;;;10.35;9.55;;;;;;;18.33;100.00;96242.78;5062067;28;20244;-50
2022/08/18 06:01:31;;;;;;;10.07;9.32;;;;;;;18.79;100.00;96254.47;5061166;28;20227;-51
2022/08/18 06:04:02;;;;;;;11.27;10.45;;;;;;;19.13;100.00;96250.00;5058742;28;20203;-52
2022/08/18 06:06:31;;;;;;;10.18;9.38;;;;;;;19.62;100.00;96260.31;5055132;28;20231;-49
2022/08/18 06:09:05;;;;;;;11.00;10.23;;;;;;;20.04;100.00;96264.34;5045200;28;20291;-51
2022/08/18 06:11:32;;;;;;;10.77;9.75;;;;;;;20.50;100.00;96265.03;5044742;28;20623;-50
2022/08/18 06:13:59;;;;;;;9.60;8.90;;;;;;;20.80;99.45;96270.63;5045207;28;20199;-50
2022/08/18 06:16:35;;;;;;;9.23;8.52;;;;;;;20.96;96.86;96272.00;5044698;28;20207;-49
2022/08/18 06:19:05;;;;;;;8.88;8.07;;;;;;;21.14;96.85;96272.13;5045795;28;20271;-51
2022/08/18 06:21:40;;;;;;;8.15;7.45;;;;;;;21.31;94.79;96267.84;5045693;28;20310;-52
2022/08/18 06:24:14;;;;;;;7.72;6.78;;;;;;;21.23;94.39;96273.47;5045024;28;20199;-51
2022/08/18 06:26:46;;;;;;;7.90;7.10;;;;;;;21.05;93.61;96279.56;5044772;28;20244;-52
2022/08/18 06:29:31;;;;;;;7.05;6.45;;;;;;;20.85;96.88;96281.56;5045313;28;20715;-51
2022/08/18 06:32:15;;;;;;;7.35;6.75;;;;;;;20.84;97.38;96287.97;5047574;28;20572;-52
2022/08/18 06:34:52;;;;;;;7.28;6.68;;;;;;;20.87;96.45;96289.44;5046103;28;20655;-50
2022/08/18 06:37:22;;;;;;;7.95;7.35;;;;;;;20.78;94.61;96294.22;5046272;28;20581;-50
2022/08/18 06:39:52;;;;;;;7.70;7.10;;;;;;;20.67;94.32;96295.72;5046886;28;20263;-50
2022/08/18 06:42:20;;;;;;;8.57;7.88;;;;;;;20.45;95.07;96302.44;5044396;28;20310;-51
2022/08/18 06:44:49;;;;;;;7.43;6.93;;;;;;;20.35;98.60;96300.22;5044126;28;20260;-51
2022/08/18 06:47:20;;;;;;;8.00;7.40;;;;;;;20.09;100.00;96294.03;5044192;28;20607;-50
2022/08/18 06:49:53;;;;;;;7.40;6.90;;;;;;;20.03;100.00;96284.97;5043013;28;20326;-52
2022/08/18 06:52:26;;;;;;;7.43;6.93;;;;;;;19.99;100.00;96299.03;5043699;28;20210;-50
2022/08/18 06:54:55;;;;;;;5.68;5.28;;;;;;;19.92;97.48;96300.91;5043500;28;20278;-51
2022/08/18 06:57:26;;;;;;;5.30;5.00;;;;;;;19.83;97.19;96314.56;5043033;28;20625;-50
2022/08/18 07:00:04;;;;;;;5.78;5.38;;;;;;;19.67;99.05;96323.03;5043505;28;20572;-50
2022/08/18 07:02:47;;;;;;;6.47;6.00;;;;;;;19.54;97.92;96320.34;5043282;28;20547;-49
2022/08/18 07:05:23;;;;;;;6.90;6.40;;;;;;;19.32;100.00;96310.81;5042012;28;20303;-51
2022/08/18 07:08:13;;;;;;;6.63;6.13;;;;;;;19.15;100.00;96296.16;5042990;28;20197;-49
2022/08/18 07:10:43;;;;;;;7.30;6.80;;;;;;;19.48;100.00;96302.41;5043284;28;20688;-49
2022/08/18 07:13:20;;;;;;;7.72;7.13;;;;;;;19.55;100.00;96311.28;5043511;28;20199;-50
2022/08/18 07:15:47;;;;;;;8.40;7.70;;;;;;;19.59;100.00;96300.97;5042826;28;20348;-50
2022/08/18 07:18:16;;;;;;;7.95;7.25;;;;;;;19.48;100.00;96297.03;5042427;28;20664;-50
2022/08/18 07:20:47;;;;;;;8.13;7.47;;;;;;;19.51;100.00;96296.63;5042842;28;20234;-50
2022/08/18 07:23:37;;;;;;;7.80;7.13;;;;;;;19.76;99.70;96294.97;5043372;28;20306;-50
2022/08/18 07:26:11;;;;;;;8.20;7.57;;;;;;;19.88;99.43;96306.69;5038990;28;20196;-50
2022/08/18 07:28:43;;;;;;;8.55;7.95;;;;;;;20.14;97.15;96310.34;5042202;28;20275;-50
2022/08/18 07:31:18;;;;;;;7.93;7.32;;;;;;;20.33;97.34;96318.38;5043838;28;20218;-51
2022/08/18 07:33:50;;;;;;;8.50;7.90;;;;;;;20.64;95.16;96309.59;5043293;28;20219;-49
2022/08/18 07:36:17;;;;;;;7.88;7.30;;;;;;;21.00;91.92;96319.75;5043135;28;20195;-49
2022/08/18 07:38:48;;;;;;;7.82;7.20;;;;;;;21.44;92.11;96313.47;5042869;28;20293;-50
2022/08/18 07:41:19;;;;;;;8.80;7.90;;;;;;;21.48;87.98;96314.69;5042979;28;20663;-49
2022/08/18 07:43:53;;;;;;;7.93;7.32;;;;;;;21.40;91.42;96324.91;5042768;28;20226;-49
2022/08/18 07:46:24;;;;;;;9.85;7.90;;;;;;;21.17;88.22;96336.22;5041740;28;20635;-49
2022/08/18 07:48:51;;;;;;;8.52;7.82;;;;;;;21.19;87.65;96347.56;5004278;28;1129854;-52
2022/08/18 07:51:23;;;;;;;8.70;8.10;;;;;;;21.27;87.50;96328.50;5043321;28;20200;-50
2022/08/18 07:53:57;;;;;;;10.93;10.02;;;;;;;21.46;87.29;96308.72;5043869;28;20624;-50
2022/08/18 07:56:32;;;;;;;10.10;9.30;;;;;;;21.56;87.88;96292.91;5044069;28;20187;-50
2022/08/18 07:59:02;;;;;;;9.00;8.25;;;;;;;21.46;86.49;96284.50;5044099;28;20194;-50
2022/08/18 08:01:39;;;;;;;8.68;7.97;;;;;;;21.54;84.93;96284.19;5042757;28;20204;-50
2022/08/18 08:04:13;;;;;;;7.90;7.30;;;;;;;21.49;86.87;96284.06;5042815;28;20268;-51
2022/08/18 08:06:43;;;;;;;7.88;7.28;;;;;;;21.53;87.19;96282.56;5043206;28;20283;-50
2022/08/18 08:09:17;;;;;;;7.68;7.07;;;;;;;21.61;86.94;96279.59;5042681;28;20228;-51
2022/08/18 08:11:51;;;;;;;8.57;7.97;;;;;;;21.84;82.98;96279.78;5043014;28;20807;-50
2022/08/18 08:14:25;;;;;;;9.32;8.60;;;;;;;21.70;81.59;96278.28;5043591;28;20268;-50
2022/08/18 08:17:00;;;;;;;8.23;7.53;;;;;;;21.63;84.64;96274.00;5042807;28;20302;-50
2022/08/18 08:19:42;;;;;;;8.13;7.43;;;;;;;21.93;87.79;96266.09;5042601;28;20290;-49
2022/08/18 08:22:13;;;;;;;8.25;7.65;;;;;;;21.96;86.66;96268.31;5042751;28;20298;-49
2022/08/18 08:24:49;;;;;;;8.52;7.80;;;;;;;22.07;82.70;96262.22;5052546;28;20260;-51
2022/08/18 08:27:21;;;;;;;9.20;8.48;;;;;;;22.10;80.73;96256.38;5062663;28;20681;-52
2022/08/18 08:29:55;;;;;;;9.18;8.38;;;;;;;22.01;79.94;96247.75;5063383;28;20203;-51
2022/08/18 08:32:29;;;;;;;9.52;8.73;;;;;;;22.47;83.59;96252.59;5043302;28;20286;-51
2022/08/18 08:34:59;;;;;;;9.10;8.40;;;;;;;22.69;80.10;96261.88;5042853;28;20274;-50
2022/08/18 08:37:30;;;;;;;10.23;9.43;;;;;;;22.77;79.27;96283.13;5043106;28;20195;-49
2022/08/18 08:40:01;;;;;;;9.45;8.60;;;;;;;23.26;79.63;96279.31;5042476;28;20278;-50
2022/08/18 08:42:37;;;;;;;10.00;9.20;;;;;;;23.46;73.39;96289.81;5043089;28;20239;-50
2022/08/18 08:45:08;;;;;;;8.05;7.45;;;;;;;23.10;71.31;96300.69;5042437;28;20223;-50
2022/08/18 08:47:38;;;;;;;9.43;8.60;;;;;;;22.94;73.16;96301.34;5042367;28;20238;-49
2022/08/18 08:50:09;;;;;;;9.55;8.65;;;;;;;23.02;77.59;96299.19;5042673;28;20294;-51
2022/08/18 08:52:42;;;;;;;9.90;9.00;;;;;;;23.18;77.20;96290.41;5042526;28;20245;-51
2022/08/18 08:55:14;;;;;;;9.20;8.40;;;;;;;23.28;74.82;96300.66;5043134;28;20189;-50
2022/08/18 08:57:47;;;;;;;9.00;8.30;;;;;;;23.14;75.25;96291.09;5041688;28;20188;-50
2022/08/18 09:00:14;;;;;;;7.93;7.22;;;;;;;23.00;78.17;96279.69;5042809;28;20281;-51
2022/08/18 09:02:55;;;;;;;9.15;8.40;;;;;;;23.38;75.73;96262.31;5042463;28;20223;-50
2022/08/18 09:05:25;;;;;;;9.02;8.23;;;;;;;23.83;74.02;96252.63;5042672;28;20644;-49
2022/08/18 09:08:22;;;;;;;8.43;7.82;;;;;;;24.24;71.88;96255.19;5042444;28;20289;-51
2022/08/18 09:11:26;;;;;;;7.72;7.15;;;;;;;24.33;68.66;96263.78;5042170;28;20734;-50
2022/08/18 09:14:15;;;;;;;5.82;5.32;;;;;;;24.38;67.28;96271.97;4990209;28;20196;-51
2022/08/18 09:16:49;;;;;;;5.78;5.38;;;;;;;24.66;67.66;96263.91;5036552;28;20307;-52
2022/08/18 09:19:29;;;;;;;5.30;4.90;;;;;;;25.00;67.27;96253.22;5041955;28;20195;-50
2022/08/18 09:22:00;;;;;;;5.78;5.10;;;;;;;25.01;66.03;96246.75;5042350;28;20512;-50
2022/08/18 09:24:29;;;;;;;4.57;4.28;;;;;;;25.25;63.97;96253.69;5042039;28;20199;-51
2022/08/18 09:27:14;;;;;;;5.65;5.15;;;;;;;25.35;61.49;96261.16;5041969;28;20724;-50
2022/08/18 09:29:53;;;;;;;5.40;4.90;;;;;;;25.42;63.64;96253.69;5041912;28;20234;-51
2022/08/18 09:32:55;;;;;;;5.47;4.88;;;;;;;25.58;61.13;96229.34;5041978;28;20274;-51
2022/08/18 09:36:05;;;;;;;6.97;4.60;;;;;;;25.65;59.24;96215.63;5034347;28;20286;-51
2022/08/18 09:41:31;;;;;;;5.45;4.95;;;;;;;25.83;57.69;96225.38;5041258;28;20214;-51
2022/08/18 09:44:09;;;;;;;5.10;4.80;;;;;;;26.09;57.20;96219.25;5042441;28;20191;-51
2022/08/18 09:46:59;;;;;;;6.95;6.05;;;;;;;25.70;59.19;96221.94;5041474;28;20206;-51
2022/08/18 09:49:45;;;;;;;6.72;6.10;;;;;;;25.97;60.98;96213.13;5032568;28;20991;-51
2022/08/18 09:52:47;;;;;;;6.18;5.78;;;;;;;25.78;58.13;96199.03;5041239;28;20206;-52
2022/08/18 09:55:56;;;;;;;5.82;5.40;;;;;;;26.27;60.99;96204.59;5014450;28;20211;-51
2022/08/18 09:58:52;;;;;;;5.85;5.38;;;;;;;26.11;62.16;96209.00;5006203;28;20720;-50
2022/08/18 10:01:33;;;;;;;7.07;6.47;;;;;;;25.69;60.73;96203.22;5041416;28;20211;-50
2022/08/18 10:04:30;;;;;;;7.03;6.50;;;;;;;25.25;62.67;96202.25;5042025;28;20246;-49
2022/08/18 10:07:16;;;;;;;7.18;6.57;;;;;;;25.13;63.39;96182.56;5041844;28;20290;-50
2022/08/18 10:09:49;;;;;;;7.10;6.60;;;;;;;24.87;64.76;96177.78;5041746;28;20270;-52
2022/08/18 10:12:30;;;;;;;7.20;6.50;;;;;;;24.45;65.90;96182.63;5041120;28;20957;-50
2022/08/18 10:15:23;;;;;;;7.20;6.60;;;;;;;24.54;66.92;96173.91;5041863;28;20282;-50
2022/08/18 10:18:02;;;;;;;7.40;6.70;;;;;;;24.17;66.81;96167.22;5041067;28;20199;-51
2022/08/18 10:20:40;;;;;;;8.40;6.88;;;;;;;23.96;68.32;96175.94;5040730;28;20296;-52
2022/08/18 10:23:08;;;;;;;6.78;6.18;;;;;;;23.73;69.44;96166.00;5041047;28;20310;-51
2022/08/18 10:25:38;;;;;;;6.45;5.85;;;;;;;23.63;67.35;96166.59;5040523;28;20200;-50
2022/08/18 10:28:07;;;;;;;6.90;6.40;;;;;;;23.50;69.00;96171.41;5040938;28;20265;-51
2022/08/18 10:31:01;;;;;;;7.18;6.57;;;;;;;23.47;69.98;96172.72;5041755;28;20207;-50
2022/08/18 10:34:00;;;;;;;7.07;6.35;;;;;;;23.46;71.53;96184.56;5032596;28;20588;-56
2022/08/18 10:36:48;;;;;;;7.45;6.88;;;;;;;23.38;70.29;96174.09;5013499;28;20228;-56
2022/08/18 10:39:18;;;;;;;7.72;6.90;;;;;;;23.42;70.57;96174.47;5060418;28;20211;-56
2022/08/18 10:42:01;;;;;;;7.60;7.00;;;;;;;23.56;69.20;96165.88;5063469;28;20193;-56
2022/08/18 10:44:32;;;;;;;6.68;6.18;;;;;;;23.40;71.50;96150.38;5049640;28;20696;-55
2022/08/18 10:47:00;;;;;;;6.97;6.47;;;;;;;23.39;70.55;96143.34;5044343;28;20210;-56
2022/08/18 10:49:30;;;;;;;7.40;6.75;;;;;;;23.38;70.14;96136.31;5045119;28;20584;-55
2022/08/18 10:52:06;;;;;;;7.05;6.55;;;;;;;23.30;69.07;96133.97;5045545;28;20196;-57
2022/08/18 10:54:44;;;;;;;7.03;6.32;;;;;;;23.31;69.30;96135.63;5045026;28;20313;-55
2022/08/18 10:57:16;;;;;;;6.57;6.07;;;;;;;23.36;69.78;96133.00;5044425;28;20229;-55
2022/08/18 10:59:47;;;;;;;6.93;6.30;;;;;;;23.24;70.07;96124.09;5045020;28;20222;-57
2022/08/18 11:02:28;;;;;;;7.53;6.93;;;;;;;23.20;71.69;96117.56;5045066;28;20227;-56
2022/08/18 11:04:55;;;;;;;7.78;7.07;;;;;;;23.18;72.11;96117.78;5044876;28;20270;-58
2022/08/18 11:07:26;;;;;;;7.43;6.82;;;;;;;23.18;72.04;96120.47;5044608;28;20279;-56
2022/08/18 11:09:54;;;;;;;6.95;6.47;;;;;;;23.17;71.66;96126.91;5044967;28;20293;-56
2022/08/18 11:12:43;;;;;;;8.30;7.60;;;;;;;22.88;72.40;96129.72;5045344;28;20195;-57
2022/08/18 11:15:16;;;;;;;7.38;6.78;;;;;;;22.83;74.24;96135.78;5045494;28;20263;-58
2022/08/18 11:17:52;;;;;;;7.18;6.50;;;;;;;22.88;75.31;96118.94;5044584;28;20187;-54
2022/08/18 11:20:21;;;;;;;7.65;7.10;;;;;;;22.81;75.77;96122.53;5044986;28;20206;-53
2022/08/18 11:22:54;;;;;;;6.78;6.28;;;;;;;22.86;76.87;96121.03;5044932;28;20322;-53
2022/08/18 11:25:26;;;;;;;7.03;6.53;;;;;;;22.90;75.24;96122.19;5044736;28;20195;-57
2022/08/18 11:27:53;;;;;;;8.18;7.47;;;;;;;22.85;74.35;96109.41;5044811;28;20288;-56
2022/08/18 11:30:20;;;;;;;7.70;6.97;;;;;;;22.82;75.46;96099.09;5045011;28;20206;-56
2022/08/18 11:32:49;;;;;;;7.15;6.63;;;;;;;22.83;74.06;96105.31;5045410;28;20263;-57
2022/08/18 11:35:17;;;;;;;6.70;5.93;;;;;;;22.88;76.17;96110.84;5044246;28;20654;-55
2022/08/18 11:37:46;;;;;;;6.90;6.43;;;;;;;22.85;76.19;96108.63;5044468;28;20222;-56
2022/08/18 11:40:30;;;;;;;6.20;5.80;;;;;;;22.85;77.00;96119.41;5044408;28;20279;-57
2022/08/18 11:43:01;;;;;;;7.70;6.95;;;;;;;22.76;76.53;96122.44;5044023;28;20211;-50
2022/08/18 11:45:34;;;;;;;7.18;6.60;;;;;;;22.68;75.83;96125.44;5044249;28;20215;-55
2022/08/18 11:48:11;;;;;;;7.13;6.53;;;;;;;22.65;76.49;96128.56;5043970;28;20755;-53
2022/08/18 11:50:46;;;;;;;6.65;6.15;;;;;;;22.60;76.36;96125.72;5047246;28;20251;-53
2022/08/18 11:53:17;;;;;;;7.05;6.45;;;;;;;22.60;75.32;96133.81;5054842;28;20308;-54
2022/08/18 11:55:45;;;;;;;6.53;5.95;;;;;;;22.57;75.02;96133.47;5054342;28;20204;-56
2022/08/18 11:58:38;;;;;;;6.95;6.38;;;;;;;22.57;76.16;96133.47;5052904;28;20302;-53
2022/08/18 12:01:07;;;;;;;6.72;6.22;;;;;;;22.51;74.24;96140.59;5057353;28;20234;-54
2022/08/18 12:03:41;;;;;;;6.00;5.53;;;;;;;22.46;74.79;96132.38;5056101;28;20250;-56